Hauptseite
METAR-TAF:

METAR-TAF

Flughäfen :

Amman, Jordanien

Flughafen Marka International

Breite: 31-59N, Länge: 035-59E, Höhe: 767 m

Beobachtung

Neuester Wetterbericht von vor 33 Minuten, um 16:00 UTC
Windstille
Temperatur 16°C
Luftfeuchtigkeit 36%
Luftdruck 1022 hPa
Sichtweite: 3000 m
verbreitet Staub

METAR: OJAM 181600Z 00000KT 3000 DU NSC 16/01 Q1022 NOSIG

Zeit: 18:33 (16:33 UTC)

Prognose

Neuester Wetterbericht von vor 5 Stunden und 33 Minuten, um 11:00 UTC
Gültige Prognose vom 18 um 12 UTC bis 19 um 18 UTC
Wind 6 kt aus Südost
Sichtweite: 3000 m
Durchbrochene Bewölkung in der Höhe von 10000 ft
trockener Dunst
Übergehend zu
vom 18 um 14 UTC bis 18 um 16 UTC
Sichtweite: 5000 m
Zeitweise
vom 19 um 02 UTC bis 19 um 06 UTC
Wind 2 kt aus unterschiedlichen Richtungen
Sichtweite: 3000 m

TAF: OJAM 181100Z 1812/1918 14006KT 3000 HZ BKN100 BECMG 1814/1816 5000 TEMPO 1902/1906 VRB02KT 3000

Wetterbeobachtungen und Prognosen von mehr als 4000 Flughäfen (METAR und TAF Bericht).

Die verfügbaren Stationen werden durch gelbe und rote Markierungen auf der Karte dargestellt.

Führen Sie die Maus auf sie, um den Namen der Station zu sehen.

Darauf klicken, um die Beobachtung von Wetterbeobachtungen und Prognosen zu sehen.

Um die Karte zu ändern : klicken Sie auf den grünen Tasten mit einem schwarzen Kreuz Zum Vergrößern, auf den grünen Button mit einem Gedankenstrich zu verkleinern, oder auf die grünen Pfeile für benachbarte Karten.


METAR-TAF: